WetterOnline ( https://www.wetteronline.ch )

Wetter aktuell Greifswalder Bodden

Aktuelles Wetter: Greifswalder Oie (12m)

6-stündlich | Neueste Meldungen
Ortszeit Temperatur Wetter
Sa, 20.04. 2:00 6.8° C wolkenlos
Fr, 19.04. 20:00 7.1° C wolkenlos
Fr, 19.04. 14:00 8.9° C wolkenlos
Fr, 19.04. 8:00 7.4° C wolkenlos
Fr, 19.04. 2:00 8.1° C wolkenlos
Do, 18.04. 20:00 7.5° C wolkenlos
Do, 18.04. 14:00 7.9° C wolkenlos
Do, 18.04. 8:00 6.9° C wolkenlos
Ortszeit Temperatur Wetter
Sa, 20.04. 6:30 6.2° C wolkig
Sa, 20.04. 6:20 6.2° C wolkig
Sa, 20.04. 6:10 6.3° C wolkig
Sa, 20.04. 6:00 6.2° C leicht bewölkt
Sa, 20.04. 5:50 6.2° C leicht bewölkt
Sa, 20.04. 5:40 6.3° C leicht bewölkt
Sa, 20.04. 5:30 6.3° C wolkig
Sa, 20.04. 5:00 6.4° C wolkig
Sa, 20.04. 4:30 6.5° C leicht bewölkt
Sa, 20.04. 4:00 6.4° C leicht bewölkt
Sa, 20.04. 3:30 6.3° C wolkenlos
Ortszeit Relative Feuchte Sichtweite
Sa, 20.04. 2:00 71% 70 km
Fr, 19.04. 20:00 77% 55 km
Fr, 19.04. 14:00 65% 15 km
Fr, 19.04. 8:00 82% 26 km
Fr, 19.04. 2:00 77% 30 km
Do, 18.04. 20:00 82% 21 km
Do, 18.04. 14:00 83% 12 km
Do, 18.04. 8:00 87% 19 km
Ortszeit Relative Feuchte Sichtweite
Sa, 20.04. 6:30 72% 60 km
Sa, 20.04. 6:20 72% -
Sa, 20.04. 6:10 71% -
Sa, 20.04. 6:00 72% 60 km
Sa, 20.04. 5:50 72% -
Sa, 20.04. 5:40 73% -
Sa, 20.04. 5:30 72% 55 km
Sa, 20.04. 5:00 72% 45 km
Sa, 20.04. 4:30 75% 65 km
Sa, 20.04. 4:00 77% 65 km
Sa, 20.04. 3:30 76% 60 km
Ortszeit Niederschlagsmenge Niederschlagsart
Sa, 20.04. 2:00 0.0 l/m2 in 6 Std. -
Fr, 19.04. 20:00 0.0 l/m2 in 12 Std. -
Fr, 19.04. 14:00 0.0 l/m2 in 6 Std. -
Fr, 19.04. 8:00 0.0 l/m2 in 12 Std. -
Fr, 19.04. 2:00 0.0 l/m2 in 6 Std. -
Do, 18.04. 20:00 0.0 l/m2 in 12 Std. -
Do, 18.04. 14:00 0.0 l/m2 in 6 Std. -
Do, 18.04. 8:00 0.0 l/m2 in 12 Std. -
Ortszeit Niederschlagsmenge Niederschlagsart
Sa, 20.04. 6:30 0.0 l/m2 in 1 Std. -
Sa, 20.04. 6:20 keine Meldung -
Sa, 20.04. 6:10 keine Meldung -
Sa, 20.04. 6:00 0.0 l/m2 in 1 Std. -
Sa, 20.04. 5:50 keine Meldung -
Sa, 20.04. 5:40 keine Meldung -
Sa, 20.04. 5:30 0.0 l/m2 in 1 Std. -
Sa, 20.04. 5:00 0.0 l/m2 in 1 Std. -
Sa, 20.04. 4:30 0.0 l/m2 in 1 Std. -
Sa, 20.04. 4:00 0.0 l/m2 in 1 Std. -
Sa, 20.04. 3:30 0.0 l/m2 in 1 Std. -
Ortszeit Stärke Spitze Richtung
km/h Bft. km/h Grad Sektor
Sa, 20.04. 2:00 19 3 26 30° NO
Fr, 19.04. 20:00 11 2 29 20° N
Fr, 19.04. 14:00 20 4 31 70° O
Fr, 19.04. 8:00 18 3 32 70° O
Fr, 19.04. 2:00 22 4 36 80° O
Do, 18.04. 20:00 15 3 26 70° O
Do, 18.04. 14:00 17 3 30 50° NO
Do, 18.04. 8:00 22 4 32 70° O
Ortszeit Stärke Spitze Richtung
km/h Bft. km/h Grad Sektor
Sa, 20.04. 6:30 18 3 29 50° NO
Sa, 20.04. 6:20 18 3 - 50° NO
Sa, 20.04. 6:10 18 3 - 50° NO
Sa, 20.04. 6:00 18 3 29 50° NO
Sa, 20.04. 5:50 18 3 - 50° NO
Sa, 20.04. 5:40 17 3 - 50° NO
Sa, 20.04. 5:30 18 3 29 50° NO
Sa, 20.04. 5:00 18 3 29 40° NO
Sa, 20.04. 4:30 18 3 25 40° NO
Sa, 20.04. 4:00 14 3 22 40° NO
Sa, 20.04. 3:30 14 3 22 40° NO
Ortszeit Untergrenze Bedeckung Gattung
total tief tief mittel hoch
Sa, 20.04. 2:00 - 0/8 0/8 - - -
Fr, 19.04. 20:00 - 0/8 0/8 - - -
Fr, 19.04. 14:00 - 0/8 0/8 - - -
Fr, 19.04. 8:00 - 0/8 0/8 - - -
Fr, 19.04. 2:00 - 0/8 0/8 - - -
Do, 18.04. 20:00 - 0/8 0/8 - - -
Do, 18.04. 14:00 - 0/8 0/8 - - -
Do, 18.04. 8:00 - 0/8 0/8 - - -
Ortszeit Bedeckungsgrad in Achtel und Wolkenuntergrenze
Sa, 20.04. 6:30 8(9000m)
Sa, 20.04. 6:20 8(9000m)
Sa, 20.04. 6:10 8(9000m)
Sa, 20.04. 6:00 6(9000m)
Sa, 20.04. 5:50 6(9000m)
Sa, 20.04. 5:40 2(9000m) 5(9000m)
Sa, 20.04. 5:30 7(9000m)
Sa, 20.04. 5:00 7(9000m) 8(9000m) 8(10500m)
Sa, 20.04. 4:30 4(9000m) 6(10500m)
Sa, 20.04. 4:00 3(9000m)
Sa, 20.04. 3:30 keine Wolken
Ortszeit Luftdruck NN (hPa) Tendenz (hPa in 3 Std.)
Sa, 20.04. 2:00 1034 - 0,5
Fr, 19.04. 20:00 1035 - 0,8
Fr, 19.04. 14:00 1037 - 0,1
Fr, 19.04. 8:00 1036 + 0,7
Fr, 19.04. 2:00 1035 + 0,9
Do, 18.04. 20:00 1033 - 0,5
Do, 18.04. 14:00 1034 - 0,2
Do, 18.04. 8:00 1033 + 1,2
Ortszeit Luftdruck NN (hPa) Tendenz (hPa in 3 Std.)
Sa, 20.04. 6:30 1034 0,0
Sa, 20.04. 6:20 1034 keine Meldung
Sa, 20.04. 6:10 1034 keine Meldung
Sa, 20.04. 6:00 1034 - 0,3
Sa, 20.04. 5:50 1034 keine Meldung
Sa, 20.04. 5:40 1034 keine Meldung
Sa, 20.04. 5:30 1034 - 0,4
Sa, 20.04. 5:00 1034 - 0,7
Sa, 20.04. 4:30 1034 - 0,9
Sa, 20.04. 4:00 1034 - 1,0
Sa, 20.04. 3:30 1034 - 0,9
Ortszeit Schneehöhe (cm)
Sa, 20.04. 2:00 0
Fr, 19.04. 20:00 0
Fr, 19.04. 14:00 0
Fr, 19.04. 8:00 0
Fr, 19.04. 2:00 0
Do, 18.04. 20:00 0
Do, 18.04. 14:00 0
Do, 18.04. 8:00 0
Ortszeit Schneehöhe (cm)
Sa, 20.04. 6:30 0
Sa, 20.04. 6:20 0
Sa, 20.04. 6:10 0
Sa, 20.04. 6:00 0
Sa, 20.04. 5:50 0
Sa, 20.04. 5:40 0
Sa, 20.04. 5:30 0
Sa, 20.04. 5:00 0
Sa, 20.04. 4:30 0
Sa, 20.04. 4:00 0
Sa, 20.04. 3:30 0
Link zu dieser Seite / Seite empfehlen

Das Wetter in ...